sensor_id;sensor_type;location;lat;lon;timestamp;pressure;altitude;pressure_sealevel;temperature;humidity
47220;BME280;32961;51.936;4.788;2023-02-23T00:01:37;101258.50;;;7.65;100.00
47220;BME280;32961;51.936;4.788;2023-02-23T00:04:06;101263.91;;;7.65;100.00
47220;BME280;32961;51.936;4.788;2023-02-23T00:06:35;101263.91;;;7.65;100.00
47220;BME280;32961;51.936;4.788;2023-02-23T00:09:04;101258.63;;;7.63;100.00
47220;BME280;32961;51.936;4.788;2023-02-23T00:11:37;101261.47;;;7.62;100.00
47220;BME280;32961;51.936;4.788;2023-02-23T00:14:05;101263.19;;;7.63;100.00
47220;BME280;32961;51.936;4.788;2023-02-23T00:16:33;101255.94;;;7.63;100.00
47220;BME280;32961;51.936;4.788;2023-02-23T00:19:03;101256.91;;;7.62;100.00
47220;BME280;32961;51.936;4.788;2023-02-23T00:21:34;101260.50;;;7.63;100.00
47220;BME280;32961;51.936;4.788;2023-02-23T00:24:03;101262.44;;;7.61;100.00
47220;BME280;32961;51.936;4.788;2023-02-23T00:26:32;101255.28;;;7.60;100.00
47220;BME280;32961;51.936;4.788;2023-02-23T00:29:03;101257.88;;;7.61;100.00
47220;BME280;32961;51.936;4.788;2023-02-23T00:31:32;101261.47;;;7.62;100.00
47220;BME280;32961;51.936;4.788;2023-02-23T00:34:01;101257.03;;;7.61;100.00
47220;BME280;32961;51.936;4.788;2023-02-23T00:36:31;101255.28;;;7.60;100.00
47220;BME280;32961;51.936;4.788;2023-02-23T00:39:01;101256.91;;;7.62;100.00
47220;BME280;32961;51.936;4.788;2023-02-23T00:41:31;101255.41;;;7.58;100.00
47220;BME280;32961;51.936;4.788;2023-02-23T00:43:59;101244.19;;;7.51;100.00
47220;BME280;32961;51.936;4.788;2023-02-23T00:46:29;101245.16;;;7.50;100.00
47220;BME280;32961;51.936;4.788;2023-02-23T00:48:58;101244.19;;;7.51;100.00
47220;BME280;32961;51.936;4.788;2023-02-23T00:51:27;101245.78;;;7.54;100.00
47220;BME280;32961;51.936;4.788;2023-02-23T00:53:57;101247.44;;;7.57;100.00
47220;BME280;32961;51.936;4.788;2023-02-23T00:56:25;101247.44;;;7.57;100.00
47220;BME280;32961;51.936;4.788;2023-02-23T00:58:54;101249.13;;;7.58;100.00
47220;BME280;32961;51.936;4.788;2023-02-23T01:01:22;101250.00;;;7.58;100.00
47220;BME280;32961;51.936;4.788;2023-02-23T01:03:52;101246.34;;;7.59;100.00
47220;BME280;32961;51.936;4.788;2023-02-23T01:06:20;101249.03;;;7.59;100.00
47220;BME280;32961;51.936;4.788;2023-02-23T01:08:50;101245.56;;;7.57;100.00
47220;BME280;32961;51.936;4.788;2023-02-23T01:11:23;101253.56;;;7.59;100.00
47220;BME280;32961;51.936;4.788;2023-02-23T01:13:55;101247.53;;;7.55;100.00
47220;BME280;32961;51.936;4.788;2023-02-23T01:16:25;101261.16;;;7.53;100.00
47220;BME280;32961;51.936;4.788;2023-02-23T01:18:55;101262.00;;;7.54;100.00
47220;BME280;32961;51.936;4.788;2023-02-23T01:21:25;101269.16;;;7.55;100.00
47220;BME280;32961;51.936;4.788;2023-02-23T01:23:55;101262.00;;;7.54;100.00
47220;BME280;32961;51.936;4.788;2023-02-23T01:26:27;101267.44;;;7.54;100.00
47220;BME280;32961;51.936;4.788;2023-02-23T01:28:57;101271.97;;;7.53;100.00
47220;BME280;32961;51.936;4.788;2023-02-23T01:31:28;101263.03;;;7.53;100.00
47220;BME280;32961;51.936;4.788;2023-02-23T01:33:59;101265.59;;;7.54;100.00
47220;BME280;32961;51.936;4.788;2023-02-23T01:36:30;101263.09;;;7.51;100.00
47220;BME280;32961;51.936;4.788;2023-02-23T01:38:59;101263.03;;;7.53;100.00
47220;BME280;32961;51.936;4.788;2023-02-23T01:41:28;101256.59;;;7.54;100.00
47220;BME280;32961;51.936;4.788;2023-02-23T01:44:01;101260.19;;;7.54;100.00
47220;BME280;32961;51.936;4.788;2023-02-23T01:46:31;101262.78;;;7.56;100.00
47220;BME280;32961;51.936;4.788;2023-02-23T01:49:02;101269.06;;;7.57;100.00
47220;BME280;32961;51.936;4.788;2023-02-23T01:51:33;101268.06;;;7.58;100.00
47220;BME280;32961;51.936;4.788;2023-02-23T01:54:07;101269.78;;;7.59;100.00
47220;BME280;32961;51.936;4.788;2023-02-23T01:56:39;101269.06;;;7.57;100.00
47220;BME280;32961;51.936;4.788;2023-02-23T01:59:11;101273.47;;;7.58;100.00
47220;BME280;32961;51.936;4.788;2023-02-23T02:01:41;101272.63;;;7.57;100.00
47220;BME280;32961;51.936;4.788;2023-02-23T02:04:11;101272.63;;;7.57;100.00
47220;BME280;32961;51.936;4.788;2023-02-23T02:06:44;101268.06;;;7.58;100.00
47220;BME280;32961;51.936;4.788;2023-02-23T02:09:16;101266.34;;;7.57;100.00
47220;BME280;32961;51.936;4.788;2023-02-23T02:11:44;101275.44;;;7.55;100.00
47220;BME280;32961;51.936;4.788;2023-02-23T02:14:21;101266.56;;;7.53;100.00
47220;BME280;32961;51.936;4.788;2023-02-23T02:16:57;101270.25;;;7.52;100.00
47220;BME280;32961;51.936;4.788;2023-02-23T02:19:55;101276.75;;;7.50;100.00
47220;BME280;32961;51.936;4.788;2023-02-23T02:23:04;101271.34;;;7.50;100.00
47220;BME280;32961;51.936;4.788;2023-02-23T02:25:48;101271.22;;;7.51;100.00
47220;BME280;32961;51.936;4.788;2023-02-23T02:28:46;101274.91;;;7.50;100.00
47220;BME280;32961;51.936;4.788;2023-02-23T02:37:30;101275.25;;;7.46;100.00
47220;BME280;32961;51.936;4.788;2023-02-23T02:40:09;101269.94;;;7.44;100.00
47220;BME280;32961;51.936;4.788;2023-02-23T02:43:00;101269.09;;;7.44;100.00
47220;BME280;32961;51.936;4.788;2023-02-23T02:45:40;101266.28;;;7.45;100.00
47220;BME280;32961;51.936;4.788;2023-02-23T02:48:16;101265.53;;;7.43;100.00
47220;BME280;32961;51.936;4.788;2023-02-23T02:50:52;101266.53;;;7.42;100.00
47220;BME280;32961;51.936;4.788;2023-02-23T02:53:27;101262.84;;;7.43;100.00
47220;BME280;32961;51.936;4.788;2023-02-23T02:56:00;101272.66;;;7.44;100.00
47220;BME280;32961;51.936;4.788;2023-02-23T02:58:31;101268.00;;;7.46;100.00
47220;BME280;32961;51.936;4.788;2023-02-23T03:01:05;101265.53;;;7.43;100.00
47220;BME280;32961;51.936;4.788;2023-02-23T03:03:51;101262.28;;;7.38;100.00
47220;BME280;32961;51.936;4.788;2023-02-23T03:06:42;101257.00;;;7.36;100.00
47220;BME280;32961;51.936;4.788;2023-02-23T03:09:36;101259.06;;;7.33;100.00
47220;BME280;32961;51.936;4.788;2023-02-23T03:12:31;101259.19;;;7.31;100.00
47220;BME280;32961;51.936;4.788;2023-02-23T03:15:31;101263.63;;;7.32;100.00
47220;BME280;32961;51.936;4.788;2023-02-23T03:18:34;101261.56;;;7.36;100.00
47220;BME280;32961;51.936;4.788;2023-02-23T03:21:27;101256.03;;;7.37;100.00
47220;BME280;32961;51.936;4.788;2023-02-23T03:24:18;101265.75;;;7.40;100.00
47220;BME280;32961;51.936;4.788;2023-02-23T03:27:14;101262.09;;;7.41;100.00
47220;BME280;32961;51.936;4.788;2023-02-23T03:30:07;101264.66;;;7.43;100.00
47220;BME280;32961;51.936;4.788;2023-02-23T03:32:57;101262.94;;;7.42;100.00
47220;BME280;32961;51.936;4.788;2023-02-23T03:35:50;101273.75;;;7.42;100.00
47220;BME280;32961;51.936;4.788;2023-02-23T03:38:40;101273.75;;;7.42;100.00
47220;BME280;32961;51.936;4.788;2023-02-23T03:41:30;101272.91;;;7.41;100.00
47220;BME280;32961;51.936;4.788;2023-02-23T03:44:23;101280.50;;;7.36;100.00
47220;BME280;32961;51.936;4.788;2023-02-23T03:47:12;101277.34;;;7.29;100.00
47220;BME280;32961;51.936;4.788;2023-02-23T03:50:03;101287.66;;;7.24;100.00
47220;BME280;32961;51.936;4.788;2023-02-23T03:52:53;101280.63;;;7.21;100.00
47220;BME280;32961;51.936;4.788;2023-02-23T03:55:42;101286.16;;;7.20;100.00
47220;BME280;32961;51.936;4.788;2023-02-23T03:58:33;101292.28;;;7.22;100.00
47220;BME280;32961;51.936;4.788;2023-02-23T04:01:23;101295.13;;;7.20;100.00
47220;BME280;32961;51.936;4.788;2023-02-23T04:04:11;101299.03;;;7.16;100.00
47220;BME280;32961;51.936;4.788;2023-02-23T04:06:58;101295.22;;;7.19;100.00
47220;BME280;32961;51.936;4.788;2023-02-23T04:09:44;101303.22;;;7.20;100.00
47220;BME280;32961;51.936;4.788;2023-02-23T04:12:33;101294.91;;;7.23;100.00
47220;BME280;32961;51.936;4.788;2023-02-23T04:15:26;101293.06;;;7.24;100.00
47220;BME280;32961;51.936;4.788;2023-02-23T04:17:55;101294.78;;;7.25;100.00
47220;BME280;32961;51.936;4.788;2023-02-23T04:20:23;101297.50;;;7.25;100.00
47220;BME280;32961;51.936;4.788;2023-02-23T04:22:51;101298.34;;;7.26;100.00
47220;BME280;32961;51.936;4.788;2023-02-23T04:25:20;101292.94;;;7.26;100.00
47220;BME280;32961;51.936;4.788;2023-02-23T04:27:48;101293.91;;;7.25;100.00
47220;BME280;32961;51.936;4.788;2023-02-23T04:30:17;101299.66;;;7.20;100.00
47220;BME280;32961;51.936;4.788;2023-02-23T04:32:46;101300.63;;;7.19;100.00
47220;BME280;32961;51.936;4.788;2023-02-23T04:35:15;101305.06;;;7.20;100.00
47220;BME280;32961;51.936;4.788;2023-02-23T04:37:43;101297.81;;;7.20;100.00
47220;BME280;32961;51.936;4.788;2023-02-23T04:40:11;101302.25;;;7.21;100.00
47220;BME280;32961;51.936;4.788;2023-02-23T04:42:40;101302.38;;;7.20;100.00
47220;BME280;32961;51.936;4.788;2023-02-23T04:45:09;101300.63;;;7.19;100.00
47220;BME280;32961;51.936;4.788;2023-02-23T04:47:37;101298.78;;;7.19;100.00
47220;BME280;32961;51.936;4.788;2023-02-23T04:50:05;101304.31;;;7.18;100.00
47220;BME280;32961;51.936;4.788;2023-02-23T04:52:35;101302.47;;;7.18;100.00
47220;BME280;32961;51.936;4.788;2023-02-23T04:55:05;101309.72;;;7.18;100.00
47220;BME280;32961;51.936;4.788;2023-02-23T04:57:34;101313.28;;;7.18;100.00
47220;BME280;32961;51.936;4.788;2023-02-23T05:00:03;101313.38;;;7.17;100.00
47220;BME280;32961;51.936;4.788;2023-02-23T05:02:31;101309.72;;;7.18;100.00
47220;BME280;32961;51.936;4.788;2023-02-23T05:04:58;101316.09;;;7.17;100.00
47220;BME280;32961;51.936;4.788;2023-02-23T05:07:26;101317.94;;;7.16;100.00
47220;BME280;32961;51.936;4.788;2023-02-23T05:09:55;101318.16;;;7.13;100.00
47220;BME280;32961;51.936;4.788;2023-02-23T05:12:23;101319.88;;;7.14;100.00
47220;BME280;32961;51.936;4.788;2023-02-23T05:14:51;101322.59;;;7.14;100.00
47220;BME280;32961;51.936;4.788;2023-02-23T05:17:19;101321.81;;;7.12;100.00
47220;BME280;32961;51.936;4.788;2023-02-23T05:19:46;101326.13;;;7.15;100.00
47220;BME280;32961;51.936;4.788;2023-02-23T05:22:14;101336.09;;;7.14;100.00
47220;BME280;32961;51.936;4.788;2023-02-23T05:24:42;101330.91;;;7.11;100.00
47220;BME280;32961;51.936;4.788;2023-02-23T05:27:11;101341.09;;;7.07;100.00
47220;BME280;32961;51.936;4.788;2023-02-23T05:29:39;101346.50;;;7.07;100.00
47220;BME280;32961;51.936;4.788;2023-02-23T05:32:07;101339.25;;;7.08;100.00
47220;BME280;32961;51.936;4.788;2023-02-23T05:34:35;101346.50;;;7.07;100.00
47220;BME280;32961;51.936;4.788;2023-02-23T05:37:04;101351.03;;;7.07;100.00
47220;BME280;32961;51.936;4.788;2023-02-23T05:39:32;101349.28;;;7.06;100.00
47220;BME280;32961;51.936;4.788;2023-02-23T05:42:00;101347.56;;;7.05;100.00
47220;BME280;32961;51.936;4.788;2023-02-23T05:44:29;101353.97;;;7.04;100.00
47220;BME280;32961;51.936;4.788;2023-02-23T05:46:57;101350.50;;;7.02;100.00
47220;BME280;32961;51.936;4.788;2023-02-23T05:49:25;101345.09;;;7.02;100.00
47220;BME280;32961;51.936;4.788;2023-02-23T05:51:52;101352.22;;;7.03;100.00
47220;BME280;32961;51.936;4.788;2023-02-23T05:54:20;101345.09;;;7.02;100.00
47220;BME280;32961;51.936;4.788;2023-02-23T05:56:48;101347.78;;;7.02;100.00
47220;BME280;32961;51.936;4.788;2023-02-23T05:59:16;101347.78;;;7.02;100.00
47220;BME280;32961;51.936;4.788;2023-02-23T06:01:45;101346.81;;;7.03;100.00
47220;BME280;32961;51.936;4.788;2023-02-23T06:04:13;101342.25;;;7.03;100.00
47220;BME280;32961;51.936;4.788;2023-02-23T06:06:41;101347.78;;;7.02;100.00
47220;BME280;32961;51.936;4.788;2023-02-23T06:09:09;101349.72;;;7.00;100.00
47220;BME280;32961;51.936;4.788;2023-02-23T06:11:36;101347.25;;;6.97;100.00
47220;BME280;32961;51.936;4.788;2023-02-23T06:14:04;101359.03;;;6.96;100.00
47220;BME280;32961;51.936;4.788;2023-02-23T06:16:32;101357.09;;;6.98;100.00
47220;BME280;32961;51.936;4.788;2023-02-23T06:19:01;101358.78;;;6.99;100.00
47220;BME280;32961;51.936;4.788;2023-02-23T06:21:29;101362.59;;;6.96;100.00
47220;BME280;32961;51.936;4.788;2023-02-23T06:23:57;101361.94;;;6.93;100.00
47220;BME280;32961;51.936;4.788;2023-02-23T06:26:26;101365.53;;;6.93;100.00
47220;BME280;32961;51.936;4.788;2023-02-23T06:28:54;101364.63;;;6.93;100.00
47220;BME280;32961;51.936;4.788;2023-02-23T06:31:22;101372.09;;;6.89;100.00
47220;BME280;32961;51.936;4.788;2023-02-23T06:33:50;101377.50;;;6.89;100.00
47220;BME280;32961;51.936;4.788;2023-02-23T06:36:19;101382.03;;;6.88;100.00
47220;BME280;32961;51.936;4.788;2023-02-23T06:38:47;101380.19;;;6.89;100.00
47220;BME280;32961;51.936;4.788;2023-02-23T06:41:14;101375.69;;;6.89;100.00
47220;BME280;32961;51.936;4.788;2023-02-23T06:43:43;101385.50;;;6.90;100.00
47220;BME280;32961;51.936;4.788;2023-02-23T06:46:11;101389.19;;;6.89;100.00
47220;BME280;32961;51.936;4.788;2023-02-23T06:48:39;101390.16;;;6.88;100.00
47220;BME280;32961;51.936;4.788;2023-02-23T06:51:07;101388.41;;;6.87;100.00
47220;BME280;32961;51.936;4.788;2023-02-23T06:53:36;101391.22;;;6.86;100.00
47220;BME280;32961;51.936;4.788;2023-02-23T06:56:05;101383.25;;;6.84;100.00
47220;BME280;32961;51.936;4.788;2023-02-23T06:58:32;101387.88;;;6.82;100.00
47220;BME280;32961;51.936;4.788;2023-02-23T07:01:00;101405.03;;;6.81;100.00
47220;BME280;32961;51.936;4.788;2023-02-23T07:03:28;101407.75;;;6.81;100.00
47220;BME280;32961;51.936;4.788;2023-02-23T07:05:56;101407.75;;;6.81;100.00
47220;BME280;32961;51.936;4.788;2023-02-23T07:08:24;101408.63;;;6.82;100.00
47220;BME280;32961;51.936;4.788;2023-02-23T07:10:53;101407.63;;;6.83;100.00
47220;BME280;32961;51.936;4.788;2023-02-23T07:13:23;101421.13;;;6.83;100.00
47220;BME280;32961;51.936;4.788;2023-02-23T07:15:55;101424.72;;;6.83;100.00
47220;BME280;32961;51.936;4.788;2023-02-23T07:18:23;101442.88;;;6.81;100.00
47220;BME280;32961;51.936;4.788;2023-02-23T07:20:51;101442.31;;;6.76;100.00
47220;BME280;32961;51.936;4.788;2023-02-23T07:23:19;101446.84;;;6.75;100.00
47220;BME280;32961;51.936;4.788;2023-02-23T07:25:48;101449.66;;;6.74;100.00
47220;BME280;32961;51.936;4.788;2023-02-23T07:28:18;101457.75;;;6.74;100.00
47220;BME280;32961;51.936;4.788;2023-02-23T07:30:46;101458.72;;;6.73;100.00
47220;BME280;32961;51.936;4.788;2023-02-23T07:33:15;101462.19;;;6.75;100.00
47220;BME280;32961;51.936;4.788;2023-02-23T07:35:43;101466.63;;;6.76;100.00
47220;BME280;32961;51.936;4.788;2023-02-23T07:38:11;101471.25;;;6.74;100.00
47220;BME280;32961;51.936;4.788;2023-02-23T07:40:39;101472.88;;;6.77;100.00
47220;BME280;32961;51.936;4.788;2023-02-23T07:43:07;101473.84;;;6.75;100.00
47220;BME280;32961;51.936;4.788;2023-02-23T07:45:36;101477.22;;;6.79;100.00
47220;BME280;32961;51.936;4.788;2023-02-23T07:48:04;101476.06;;;6.83;100.00
47220;BME280;32961;51.936;4.788;2023-02-23T07:50:32;101479.59;;;6.84;100.00
47220;BME280;32961;51.936;4.788;2023-02-23T07:53:01;101483.38;;;6.81;100.00
47220;BME280;32961;51.936;4.788;2023-02-23T07:55:28;101485.00;;;6.84;100.00
47220;BME280;32961;51.936;4.788;2023-02-23T07:57:56;101487.59;;;6.85;100.00
47220;BME280;32961;51.936;4.788;2023-02-23T08:00:24;101501.03;;;6.87;100.00
47220;BME280;32961;51.936;4.788;2023-02-23T08:02:54;101492.59;;;6.92;100.00
47220;BME280;32961;51.936;4.788;2023-02-23T08:05:21;101492.28;;;6.96;100.00
47220;BME280;32961;51.936;4.788;2023-02-23T08:07:52;101491.97;;;7.01;100.00
47220;BME280;32961;51.936;4.788;2023-02-23T08:10:19;101497.16;;;7.04;100.00
47220;BME280;32961;51.936;4.788;2023-02-23T08:12:47;101505.16;;;7.05;100.00
47220;BME280;32961;51.936;4.788;2023-02-23T08:15:15;101506.91;;;7.06;100.00
47220;BME280;32961;51.936;4.788;2023-02-23T08:17:43;101506.13;;;7.04;100.00
47220;BME280;32961;51.936;4.788;2023-02-23T08:20:12;101502.56;;;7.04;100.00
47220;BME280;32961;51.936;4.788;2023-02-23T08:22:40;101501.56;;;7.05;100.00
47220;BME280;32961;51.936;4.788;2023-02-23T08:25:15;101506.00;;;7.06;100.00
47220;BME280;32961;51.936;4.788;2023-02-23T08:27:43;101511.97;;;7.11;100.00
47220;BME280;32961;51.936;4.788;2023-02-23T08:30:12;101511.97;;;7.11;100.00
47220;BME280;32961;51.936;4.788;2023-02-23T08:32:40;101516.19;;;7.15;100.00
47220;BME280;32961;51.936;4.788;2023-02-23T08:35:09;101521.81;;;7.12;100.00
47220;BME280;32961;51.936;4.788;2023-02-23T08:37:38;101511.88;;;7.13;100.00
47220;BME280;32961;51.936;4.788;2023-02-23T08:40:08;101517.16;;;7.14;100.00
47220;BME280;32961;51.936;4.788;2023-02-23T08:42:36;101519.03;;;7.14;100.00
47220;BME280;32961;51.936;4.788;2023-02-23T08:45:05;101524.19;;;7.17;100.00
47220;BME280;32961;51.936;4.788;2023-02-23T08:47:34;101520.41;;;7.19;100.00
47220;BME280;32961;51.936;4.788;2023-02-23T08:50:03;101522.38;;;7.17;100.00
47220;BME280;32961;51.936;4.788;2023-02-23T08:52:31;101532.09;;;7.20;100.00
47220;BME280;32961;51.936;4.788;2023-02-23T08:55:00;101537.41;;;7.21;100.00
47220;BME280;32961;51.936;4.788;2023-02-23T08:57:31;101538.25;;;7.22;100.00
47220;BME280;32961;51.936;4.788;2023-02-23T08:59:59;101548.97;;;7.23;100.00
47220;BME280;32961;51.936;4.788;2023-02-23T09:02:27;101543.47;;;7.25;100.00
47220;BME280;32961;51.936;4.788;2023-02-23T09:04:55;101544.44;;;7.24;100.00
47220;BME280;32961;51.936;4.788;2023-02-23T09:07:23;101547.13;;;7.24;100.00
47220;BME280;32961;51.936;4.788;2023-02-23T09:09:54;101551.34;;;7.28;100.00
47220;BME280;32961;51.936;4.788;2023-02-23T09:12:23;101551.25;;;7.30;100.00
47220;BME280;32961;51.936;4.788;2023-02-23T09:14:51;101545.63;;;7.33;100.00
47220;BME280;32961;51.936;4.788;2023-02-23T09:17:20;101550.91;;;7.34;100.00
47220;BME280;32961;51.936;4.788;2023-02-23T09:19:49;101559.91;;;7.35;100.00
47220;BME280;32961;51.936;4.788;2023-02-23T09:22:17;101557.75;;;7.40;100.00
47220;BME280;32961;51.936;4.788;2023-02-23T09:24:45;101559.19;;;7.46;100.00
47220;BME280;32961;51.936;4.788;2023-02-23T09:27:13;101568.69;;;7.51;100.00
47220;BME280;32961;51.936;4.788;2023-02-23T09:29:42;101567.81;;;7.51;100.00
47220;BME280;32961;51.936;4.788;2023-02-23T09:32:10;101572.69;;;7.46;100.00
47220;BME280;32961;51.936;4.788;2023-02-23T09:34:38;101579.72;;;7.48;100.00
47220;BME280;32961;51.936;4.788;2023-02-23T09:37:06;101585.88;;;7.50;100.00
47220;BME280;32961;51.936;4.788;2023-02-23T09:39:34;101571.50;;;7.50;100.00
47220;BME280;32961;51.936;4.788;2023-02-23T09:42:28;101578.53;;;7.39;100.00
47220;BME280;32961;51.936;4.788;2023-02-23T09:45:10;101573.13;;;7.52;100.00
47220;BME280;32961;51.936;4.788;2023-02-23T09:47:50;101573.56;;;7.46;100.00
47220;BME280;32961;51.936;4.788;2023-02-23T09:50:26;101582.78;;;7.57;100.00
47220;BME280;32961;51.936;4.788;2023-02-23T09:52:58;101578.09;;;7.59;100.00
47220;BME280;32961;51.936;4.788;2023-02-23T09:55:29;101577.25;;;7.58;100.00
47220;BME280;32961;51.936;4.788;2023-02-23T09:58:03;101568.16;;;7.72;100.00
47220;BME280;32961;51.936;4.788;2023-02-23T10:00:37;101574.44;;;7.73;100.00
47220;BME280;32961;51.936;4.788;2023-02-23T10:03:17;101561.66;;;7.75;100.00
47220;BME280;32961;51.936;4.788;2023-02-23T10:05:50;101573.13;;;7.78;100.00
47220;BME280;32961;51.936;4.788;2023-02-23T10:08:31;101571.84;;;7.84;100.00
47220;BME280;32961;51.936;4.788;2023-02-23T10:11:10;101577.59;;;7.92;100.00
47220;BME280;32961;51.936;4.788;2023-02-23T10:13:50;101582.13;;;7.92;100.00
47220;BME280;32961;51.936;4.788;2023-02-23T10:16:29;101588.06;;;7.97;100.00
47220;BME280;32961;51.936;4.788;2023-02-23T10:19:05;101587.19;;;7.96;100.00
47220;BME280;32961;51.936;4.788;2023-02-23T10:21:40;101585.78;;;8.03;100.00
47220;BME280;32961;51.936;4.788;2023-02-23T10:24:11;101582.00;;;8.06;100.00
47220;BME280;32961;51.936;4.788;2023-02-23T10:26:45;101587.19;;;8.09;100.00
47220;BME280;32961;51.936;4.788;2023-02-23T10:29:20;101581.56;;;8.12;100.00
47220;BME280;32961;51.936;4.788;2023-02-23T10:31:55;101585.03;;;8.14;100.00
47220;BME280;32961;51.936;4.788;2023-02-23T10:34:26;101594.97;;;8.14;100.00
47220;BME280;32961;51.936;4.788;2023-02-23T10:36:58;101592.19;;;8.15;100.00
47220;BME280;32961;51.936;4.788;2023-02-23T10:39:27;101596.16;;;8.23;100.00
47220;BME280;32961;51.936;4.788;2023-02-23T10:41:57;101598.84;;;8.23;100.00
47220;BME280;32961;51.936;4.788;2023-02-23T10:44:27;101593.69;;;8.19;100.00
47220;BME280;32961;51.936;4.788;2023-02-23T10:46:59;101602.66;;;8.20;100.00
47220;BME280;32961;51.936;4.788;2023-02-23T10:49:36;101598.66;;;8.26;100.00
47220;BME280;32961;51.936;4.788;2023-02-23T10:52:09;101594.97;;;8.27;100.00
47220;BME280;32961;51.936;4.788;2023-02-23T10:54:42;101607.28;;;8.31;100.00
47220;BME280;32961;51.936;4.788;2023-02-23T10:57:18;101611.41;;;8.24;100.00
47220;BME280;32961;51.936;4.788;2023-02-23T11:00:07;101600.81;;;8.21;100.00
47220;BME280;32961;51.936;4.788;2023-02-23T11:02:47;101598.97;;;8.21;100.00
47220;BME280;32961;51.936;4.788;2023-02-23T11:05:29;101599.09;;;8.19;100.00
47220;BME280;32961;51.936;4.788;2023-02-23T11:08:19;101601.03;;;8.17;100.00
47220;BME280;32961;51.936;4.788;2023-02-23T11:11:05;101595.41;;;8.21;100.00
47220;BME280;32961;51.936;4.788;2023-02-23T11:13:39;101598.13;;;8.21;100.00
47220;BME280;32961;51.936;4.788;2023-02-23T11:16:10;101600.50;;;8.25;100.00
47220;BME280;32961;51.936;4.788;2023-02-23T11:18:47;101602.44;;;8.23;100.00
47220;BME280;32961;51.936;4.788;2023-02-23T11:21:21;101596.25;;;8.21;100.00
47220;BME280;32961;51.936;4.788;2023-02-23T11:23:51;101610.78;;;8.20;100.00
47220;BME280;32961;51.936;4.788;2023-02-23T11:26:32;101613.19;;;8.12;100.00
47220;BME280;32961;51.936;4.788;2023-02-23T11:29:12;101617.41;;;8.16;100.00
47220;BME280;32961;51.936;4.788;2023-02-23T11:31:46;101629.84;;;8.18;100.00
47220;BME280;32961;51.936;4.788;2023-02-23T11:34:26;101620.88;;;8.18;100.00
47220;BME280;32961;51.936;4.788;2023-02-23T11:37:00;101621.72;;;8.18;100.00
47220;BME280;32961;51.936;4.788;2023-02-23T11:39:28;101623.13;;;8.11;100.00
47220;BME280;32961;51.936;4.788;2023-02-23T11:42:11;101616.34;;;8.06;100.00
47220;BME280;32961;51.936;4.788;2023-02-23T11:44:40;101614.69;;;8.03;100.00
47220;BME280;32961;51.936;4.788;2023-02-23T11:47:14;101614.25;;;8.09;100.00
47220;BME280;32961;51.936;4.788;2023-02-23T11:49:44;101594.13;;;8.13;100.00
47220;BME280;32961;51.936;4.788;2023-02-23T11:52:15;101603.31;;;8.11;100.00
47220;BME280;32961;51.936;4.788;2023-02-23T11:54:50;101593.47;;;8.10;100.00
47220;BME280;32961;51.936;4.788;2023-02-23T11:57:20;101595.75;;;8.16;100.00
47220;BME280;32961;51.936;4.788;2023-02-23T11:59:48;101594.84;;;8.28;100.00
47220;BME280;32961;51.936;4.788;2023-02-23T12:02:21;101599.16;;;8.31;100.00
47220;BME280;32961;51.936;4.788;2023-02-23T12:05:00;101602.19;;;8.39;100.00
47220;BME280;32961;51.936;4.788;2023-02-23T12:07:34;101599.59;;;8.38;100.00
47220;BME280;32961;51.936;4.788;2023-02-23T12:10:12;101603.94;;;8.40;100.00
47220;BME280;32961;51.936;4.788;2023-02-23T12:12:47;101596.66;;;8.41;100.00
47220;BME280;32961;51.936;4.788;2023-02-23T12:15:27;101600.59;;;8.37;100.00
47220;BME280;32961;51.936;4.788;2023-02-23T12:17:59;101600.13;;;8.43;100.00
47220;BME280;32961;51.936;4.788;2023-02-23T12:20:34;101598.97;;;8.34;100.00
47220;BME280;32961;51.936;4.788;2023-02-23T12:23:07;101610.97;;;8.43;100.00
47220;BME280;32961;51.936;4.788;2023-02-23T12:25:39;101610.09;;;8.42;100.00
47220;BME280;32961;51.936;4.788;2023-02-23T12:28:12;101602.06;;;8.41;100.00
47220;BME280;32961;51.936;4.788;2023-02-23T12:30:49;101608.94;;;8.46;100.00
47220;BME280;32961;51.936;4.788;2023-02-23T12:33:21;101603.81;;;8.42;100.00
47220;BME280;32961;51.936;4.788;2023-02-23T12:35:56;101606.66;;;8.40;100.00
47220;BME280;32961;51.936;4.788;2023-02-23T12:38:31;101600.00;;;8.44;100.00
47220;BME280;32961;51.936;4.788;2023-02-23T12:41:04;101599.91;;;8.46;100.00
47220;BME280;32961;51.936;4.788;2023-02-23T12:43:38;101596.78;;;8.39;100.00
47220;BME280;32961;51.936;4.788;2023-02-23T12:46:11;101594.19;;;8.38;100.00
47220;BME280;32961;51.936;4.788;2023-02-23T12:48:48;101592.34;;;8.38;100.00
47220;BME280;32961;51.936;4.788;2023-02-23T12:51:24;101598.09;;;8.46;99.99
47220;BME280;32961;51.936;4.788;2023-02-23T12:53:54;101602.31;;;8.50;100.00
47220;BME280;32961;51.936;4.788;2023-02-23T12:56:31;101597.19;;;8.46;99.01
47220;BME280;32961;51.936;4.788;2023-02-23T12:59:30;101603.06;;;8.53;99.00
47220;BME280;32961;51.936;4.788;2023-02-23T13:02:10;101591.53;;;8.62;98.88
47220;BME280;32961;51.936;4.788;2023-02-23T13:05:00;101595.00;;;8.64;98.16
47220;BME280;32961;51.936;4.788;2023-02-23T13:07:40;101598.94;;;8.60;98.21
47220;BME280;32961;51.936;4.788;2023-02-23T13:10:17;101597.13;;;8.72;98.98
47220;BME280;32961;51.936;4.788;2023-02-23T13:12:53;101598.41;;;8.79;98.52
47220;BME280;32961;51.936;4.788;2023-02-23T13:15:39;101583.22;;;8.89;98.94
47220;BME280;32961;51.936;4.788;2023-02-23T13:18:14;101595.25;;;8.85;96.69
47220;BME280;32961;51.936;4.788;2023-02-23T13:20:50;101596.22;;;8.84;96.17
47220;BME280;32961;51.936;4.788;2023-02-23T13:23:29;101598.59;;;8.89;96.45
47220;BME280;32961;51.936;4.788;2023-02-23T13:26:05;101594.06;;;8.89;96.08
47220;BME280;32961;51.936;4.788;2023-02-23T13:28:47;101598.84;;;8.86;96.43